sensor_id;sensor_type;location;lat;lon;timestamp;temperature;humidity
68922;DHT22;55959;51.244;5.724;2023-04-08T00:02:02;12.50;69.30
68922;DHT22;55959;51.244;5.724;2023-04-08T00:04:28;12.50;69.30
68922;DHT22;55959;51.244;5.724;2023-04-08T00:06:54;12.50;69.40
68922;DHT22;55959;51.244;5.724;2023-04-08T00:09:20;12.50;69.40
68922;DHT22;55959;51.244;5.724;2023-04-08T00:11:46;12.50;69.50
68922;DHT22;55959;51.244;5.724;2023-04-08T00:14:11;12.50;70.40
68922;DHT22;55959;51.244;5.724;2023-04-08T00:16:37;12.50;69.60
68922;DHT22;55959;51.244;5.724;2023-04-08T00:19:03;12.50;69.60
68922;DHT22;55959;51.244;5.724;2023-04-08T00:21:31;12.50;69.60
68922;DHT22;55959;51.244;5.724;2023-04-08T00:23:56;12.50;69.60
68922;DHT22;55959;51.244;5.724;2023-04-08T00:26:22;12.50;69.70
68922;DHT22;55959;51.244;5.724;2023-04-08T00:28:48;12.50;69.70
68922;DHT22;55959;51.244;5.724;2023-04-08T00:31:14;12.50;69.70
68922;DHT22;55959;51.244;5.724;2023-04-08T00:33:39;12.50;69.70
68922;DHT22;55959;51.244;5.724;2023-04-08T00:36:05;12.50;69.60
68922;DHT22;55959;51.244;5.724;2023-04-08T00:38:31;12.50;69.60
68922;DHT22;55959;51.244;5.724;2023-04-08T00:40:57;12.50;69.60
68922;DHT22;55959;51.244;5.724;2023-04-08T00:43:23;12.50;69.70
68922;DHT22;55959;51.244;5.724;2023-04-08T00:45:49;12.50;70.50
68922;DHT22;55959;51.244;5.724;2023-04-08T00:48:15;12.50;69.70
68922;DHT22;55959;51.244;5.724;2023-04-08T00:50:42;12.50;69.70
68922;DHT22;55959;51.244;5.724;2023-04-08T00:53:08;12.50;69.70
68922;DHT22;55959;51.244;5.724;2023-04-08T00:55:34;12.50;69.70
68922;DHT22;55959;51.244;5.724;2023-04-08T00:58:00;12.50;69.80
68922;DHT22;55959;51.244;5.724;2023-04-08T01:00:28;12.50;69.90
68922;DHT22;55959;51.244;5.724;2023-04-08T01:03:04;12.50;69.90
68922;DHT22;55959;51.244;5.724;2023-04-08T01:08:30;12.40;69.90
68922;DHT22;55959;51.244;5.724;2023-04-08T01:11:01;12.40;69.90
68922;DHT22;55959;51.244;5.724;2023-04-08T01:13:31;12.40;69.90
68922;DHT22;55959;51.244;5.724;2023-04-08T01:16:00;12.40;70.00
68922;DHT22;55959;51.244;5.724;2023-04-08T01:18:26;12.40;70.10
68922;DHT22;55959;51.244;5.724;2023-04-08T01:20:53;12.30;70.10
68922;DHT22;55959;51.244;5.724;2023-04-08T01:23:28;12.30;70.20
68922;DHT22;55959;51.244;5.724;2023-04-08T01:25:58;12.30;70.30
68922;DHT22;55959;51.244;5.724;2023-04-08T01:28:27;12.30;70.30
68922;DHT22;55959;51.244;5.724;2023-04-08T01:30:56;12.30;70.30
68922;DHT22;55959;51.244;5.724;2023-04-08T01:33:23;12.30;70.30
68922;DHT22;55959;51.244;5.724;2023-04-08T01:35:50;12.30;70.50
68922;DHT22;55959;51.244;5.724;2023-04-08T01:38:19;12.30;70.50
68922;DHT22;55959;51.244;5.724;2023-04-08T01:40:46;12.30;70.50
68922;DHT22;55959;51.244;5.724;2023-04-08T01:43:16;12.30;70.50
68922;DHT22;55959;51.244;5.724;2023-04-08T01:45:44;12.20;70.40
68922;DHT22;55959;51.244;5.724;2023-04-08T01:48:13;12.20;70.40
68922;DHT22;55959;51.244;5.724;2023-04-08T01:50:41;12.20;70.50
68922;DHT22;55959;51.244;5.724;2023-04-08T01:53:09;12.20;70.50
68922;DHT22;55959;51.244;5.724;2023-04-08T01:55:37;12.20;70.50
68922;DHT22;55959;51.244;5.724;2023-04-08T01:58:06;12.20;70.60
68922;DHT22;55959;51.244;5.724;2023-04-08T02:00:34;12.20;70.70
68922;DHT22;55959;51.244;5.724;2023-04-08T02:03:01;12.20;70.80
68922;DHT22;55959;51.244;5.724;2023-04-08T02:05:28;12.20;70.70
68922;DHT22;55959;51.244;5.724;2023-04-08T02:07:54;12.20;70.80
68922;DHT22;55959;51.244;5.724;2023-04-08T02:10:20;12.20;70.80
68922;DHT22;55959;51.244;5.724;2023-04-08T02:12:46;12.20;70.80
68922;DHT22;55959;51.244;5.724;2023-04-08T02:15:12;12.20;70.80
68922;DHT22;55959;51.244;5.724;2023-04-08T02:17:42;12.20;70.90
68922;DHT22;55959;51.244;5.724;2023-04-08T02:20:13;12.20;70.90
68922;DHT22;55959;51.244;5.724;2023-04-08T02:22:56;12.20;70.90
68922;DHT22;55959;51.244;5.724;2023-04-08T02:25:28;12.20;71.00
68922;DHT22;55959;51.244;5.724;2023-04-08T02:27:55;12.20;71.00
68922;DHT22;55959;51.244;5.724;2023-04-08T02:30:23;12.20;71.10
68922;DHT22;55959;51.244;5.724;2023-04-08T02:32:50;12.10;71.10
68922;DHT22;55959;51.244;5.724;2023-04-08T02:35:19;12.10;71.10
68922;DHT22;55959;51.244;5.724;2023-04-08T02:37:46;12.10;71.20
68922;DHT22;55959;51.244;5.724;2023-04-08T02:40:31;12.10;71.20
68922;DHT22;55959;51.244;5.724;2023-04-08T02:42:58;12.10;71.30
68922;DHT22;55959;51.244;5.724;2023-04-08T02:45:28;12.10;71.30
68922;DHT22;55959;51.244;5.724;2023-04-08T02:47:56;12.10;71.40
68922;DHT22;55959;51.244;5.724;2023-04-08T02:50:23;12.10;71.50
68922;DHT22;55959;51.244;5.724;2023-04-08T02:52:49;12.10;71.50
68922;DHT22;55959;51.244;5.724;2023-04-08T02:55:14;12.10;71.60
68922;DHT22;55959;51.244;5.724;2023-04-08T02:57:41;12.10;71.70
68922;DHT22;55959;51.244;5.724;2023-04-08T03:00:08;12.10;72.50
68922;DHT22;55959;51.244;5.724;2023-04-08T03:02:35;12.10;71.70
68922;DHT22;55959;51.244;5.724;2023-04-08T03:05:00;12.10;71.80
68922;DHT22;55959;51.244;5.724;2023-04-08T03:07:26;12.10;71.90
68922;DHT22;55959;51.244;5.724;2023-04-08T03:09:53;12.10;71.90
68922;DHT22;55959;51.244;5.724;2023-04-08T03:12:20;12.10;72.10
68922;DHT22;55959;51.244;5.724;2023-04-08T03:14:46;12.00;72.10
68922;DHT22;55959;51.244;5.724;2023-04-08T03:17:12;12.10;72.30
68922;DHT22;55959;51.244;5.724;2023-04-08T03:19:38;12.10;72.20
68922;DHT22;55959;51.244;5.724;2023-04-08T03:22:03;12.10;72.10
68922;DHT22;55959;51.244;5.724;2023-04-08T03:24:29;12.10;72.10
68922;DHT22;55959;51.244;5.724;2023-04-08T03:26:55;12.10;72.10
68922;DHT22;55959;51.244;5.724;2023-04-08T03:29:21;12.20;72.20
68922;DHT22;55959;51.244;5.724;2023-04-08T03:31:46;12.20;72.20
68922;DHT22;55959;51.244;5.724;2023-04-08T03:34:12;12.20;72.20
68922;DHT22;55959;51.244;5.724;2023-04-08T03:36:38;12.20;72.10
68922;DHT22;55959;51.244;5.724;2023-04-08T03:39:03;12.20;72.10
68922;DHT22;55959;51.244;5.724;2023-04-08T03:41:30;12.20;72.10
68922;DHT22;55959;51.244;5.724;2023-04-08T03:43:57;12.20;72.10
68922;DHT22;55959;51.244;5.724;2023-04-08T03:46:22;12.20;72.10
68922;DHT22;55959;51.244;5.724;2023-04-08T03:48:48;12.20;72.10
68922;DHT22;55959;51.244;5.724;2023-04-08T03:51:14;12.20;72.20
68922;DHT22;55959;51.244;5.724;2023-04-08T03:53:40;12.20;72.30
68922;DHT22;55959;51.244;5.724;2023-04-08T03:56:06;12.20;72.30
68922;DHT22;55959;51.244;5.724;2023-04-08T03:58:32;12.20;72.30
68922;DHT22;55959;51.244;5.724;2023-04-08T04:00:58;12.20;72.40
68922;DHT22;55959;51.244;5.724;2023-04-08T04:03:23;12.20;72.40
68922;DHT22;55959;51.244;5.724;2023-04-08T04:05:49;12.20;72.50
68922;DHT22;55959;51.244;5.724;2023-04-08T04:08:15;12.20;72.50
68922;DHT22;55959;51.244;5.724;2023-04-08T04:10:41;12.20;72.40
68922;DHT22;55959;51.244;5.724;2023-04-08T04:13:07;12.20;72.50
68922;DHT22;55959;51.244;5.724;2023-04-08T04:15:33;12.20;72.50
68922;DHT22;55959;51.244;5.724;2023-04-08T04:18:02;12.20;72.50
68922;DHT22;55959;51.244;5.724;2023-04-08T04:20:28;12.20;72.60
68922;DHT22;55959;51.244;5.724;2023-04-08T04:22:54;12.20;72.60
68922;DHT22;55959;51.244;5.724;2023-04-08T04:25:20;12.10;72.60
68922;DHT22;55959;51.244;5.724;2023-04-08T04:27:46;12.10;72.70
68922;DHT22;55959;51.244;5.724;2023-04-08T04:30:12;12.10;72.70
68922;DHT22;55959;51.244;5.724;2023-04-08T04:32:40;12.10;72.80
68922;DHT22;55959;51.244;5.724;2023-04-08T04:35:08;12.10;72.90
68922;DHT22;55959;51.244;5.724;2023-04-08T04:37:34;12.10;73.00
68922;DHT22;55959;51.244;5.724;2023-04-08T04:40:01;12.00;73.10
68922;DHT22;55959;51.244;5.724;2023-04-08T04:42:27;12.00;73.10
68922;DHT22;55959;51.244;5.724;2023-04-08T04:44:53;12.00;73.30
68922;DHT22;55959;51.244;5.724;2023-04-08T04:47:19;12.00;73.30
68922;DHT22;55959;51.244;5.724;2023-04-08T04:49:45;12.00;73.50
68922;DHT22;55959;51.244;5.724;2023-04-08T04:52:11;12.00;73.50
68922;DHT22;55959;51.244;5.724;2023-04-08T04:54:36;12.00;73.60
68922;DHT22;55959;51.244;5.724;2023-04-08T04:57:02;12.00;73.70
68922;DHT22;55959;51.244;5.724;2023-04-08T04:59:28;12.00;73.70
68922;DHT22;55959;51.244;5.724;2023-04-08T05:01:54;12.00;73.60
68922;DHT22;55959;51.244;5.724;2023-04-08T05:04:24;12.00;73.70
68922;DHT22;55959;51.244;5.724;2023-04-08T05:06:51;12.00;73.70
68922;DHT22;55959;51.244;5.724;2023-04-08T05:09:16;12.00;73.70
68922;DHT22;55959;51.244;5.724;2023-04-08T05:11:42;12.00;73.70
68922;DHT22;55959;51.244;5.724;2023-04-08T05:14:08;12.00;73.80
68922;DHT22;55959;51.244;5.724;2023-04-08T05:16:34;12.00;73.80
68922;DHT22;55959;51.244;5.724;2023-04-08T05:18:59;12.00;73.80
68922;DHT22;55959;51.244;5.724;2023-04-08T05:21:25;12.00;73.90
68922;DHT22;55959;51.244;5.724;2023-04-08T05:23:52;12.10;74.00
68922;DHT22;55959;51.244;5.724;2023-04-08T05:26:22;12.10;74.00
68922;DHT22;55959;51.244;5.724;2023-04-08T05:28:49;12.00;74.00
68922;DHT22;55959;51.244;5.724;2023-04-08T05:31:18;12.10;74.10
68922;DHT22;55959;51.244;5.724;2023-04-08T05:33:48;12.10;74.10
68922;DHT22;55959;51.244;5.724;2023-04-08T05:36:18;12.10;74.10
68922;DHT22;55959;51.244;5.724;2023-04-08T05:38:45;12.10;74.10
68922;DHT22;55959;51.244;5.724;2023-04-08T05:41:11;12.10;74.10
68922;DHT22;55959;51.244;5.724;2023-04-08T05:43:37;12.10;74.10
68922;DHT22;55959;51.244;5.724;2023-04-08T05:46:06;12.10;74.10
68922;DHT22;55959;51.244;5.724;2023-04-08T05:48:33;12.10;74.10
68922;DHT22;55959;51.244;5.724;2023-04-08T05:50:59;12.20;74.10
68922;DHT22;55959;51.244;5.724;2023-04-08T05:53:25;12.20;74.20
68922;DHT22;55959;51.244;5.724;2023-04-08T05:55:51;12.20;74.10
68922;DHT22;55959;51.244;5.724;2023-04-08T05:58:16;12.20;74.10
68922;DHT22;55959;51.244;5.724;2023-04-08T06:00:42;12.20;74.10
68922;DHT22;55959;51.244;5.724;2023-04-08T06:03:08;12.20;74.10
68922;DHT22;55959;51.244;5.724;2023-04-08T06:05:33;12.20;74.10
68922;DHT22;55959;51.244;5.724;2023-04-08T06:08:00;12.20;74.10
68922;DHT22;55959;51.244;5.724;2023-04-08T06:10:26;12.30;74.10
68922;DHT22;55959;51.244;5.724;2023-04-08T06:12:52;12.30;74.20
68922;DHT22;55959;51.244;5.724;2023-04-08T06:15:17;12.30;74.20
68922;DHT22;55959;51.244;5.724;2023-04-08T06:17:44;12.30;74.20
68922;DHT22;55959;51.244;5.724;2023-04-08T06:20:10;12.30;74.30
68922;DHT22;55959;51.244;5.724;2023-04-08T06:22:36;12.30;74.30
68922;DHT22;55959;51.244;5.724;2023-04-08T06:25:02;12.30;74.30
68922;DHT22;55959;51.244;5.724;2023-04-08T06:27:29;12.40;74.30
68922;DHT22;55959;51.244;5.724;2023-04-08T06:29:55;12.40;74.30
68922;DHT22;55959;51.244;5.724;2023-04-08T06:32:21;12.40;74.40
68922;DHT22;55959;51.244;5.724;2023-04-08T06:34:47;12.40;74.50
68922;DHT22;55959;51.244;5.724;2023-04-08T06:37:13;12.40;74.50
68922;DHT22;55959;51.244;5.724;2023-04-08T06:39:39;12.40;74.50
68922;DHT22;55959;51.244;5.724;2023-04-08T06:42:05;12.40;74.50
68922;DHT22;55959;51.244;5.724;2023-04-08T06:44:31;12.50;74.70
68922;DHT22;55959;51.244;5.724;2023-04-08T06:46:57;12.50;74.60
68922;DHT22;55959;51.244;5.724;2023-04-08T06:49:22;12.50;74.60
68922;DHT22;55959;51.244;5.724;2023-04-08T06:51:48;12.50;74.60
68922;DHT22;55959;51.244;5.724;2023-04-08T06:54:14;12.50;74.60
68922;DHT22;55959;51.244;5.724;2023-04-08T06:56:40;12.60;74.70
68922;DHT22;55959;51.244;5.724;2023-04-08T06:59:06;12.60;74.70
68922;DHT22;55959;51.244;5.724;2023-04-08T07:01:31;12.60;74.70
68922;DHT22;55959;51.244;5.724;2023-04-08T07:03:57;12.60;74.70
68922;DHT22;55959;51.244;5.724;2023-04-08T07:06:23;12.70;74.80
68922;DHT22;55959;51.244;5.724;2023-04-08T07:08:49;12.60;74.90
68922;DHT22;55959;51.244;5.724;2023-04-08T07:11:15;12.70;74.90
68922;DHT22;55959;51.244;5.724;2023-04-08T07:13:41;12.70;74.90
68922;DHT22;55959;51.244;5.724;2023-04-08T07:16:07;12.80;74.90
68922;DHT22;55959;51.244;5.724;2023-04-08T07:18:33;12.80;74.80
68922;DHT22;55959;51.244;5.724;2023-04-08T07:20:59;12.80;74.60
68922;DHT22;55959;51.244;5.724;2023-04-08T07:23:25;12.80;74.40
68922;DHT22;55959;51.244;5.724;2023-04-08T07:25:52;12.80;74.20
68922;DHT22;55959;51.244;5.724;2023-04-08T07:28:19;12.80;74.20
68922;DHT22;55959;51.244;5.724;2023-04-08T07:30:45;12.90;74.20
68922;DHT22;55959;51.244;5.724;2023-04-08T07:33:11;12.90;74.20
68922;DHT22;55959;51.244;5.724;2023-04-08T07:35:37;12.90;74.20
68922;DHT22;55959;51.244;5.724;2023-04-08T07:38:03;12.90;74.00
68922;DHT22;55959;51.244;5.724;2023-04-08T07:40:33;12.90;73.80
68922;DHT22;55959;51.244;5.724;2023-04-08T07:42:59;12.90;73.80
68922;DHT22;55959;51.244;5.724;2023-04-08T07:45:24;12.90;73.80
68922;DHT22;55959;51.244;5.724;2023-04-08T07:47:50;12.90;73.80
68922;DHT22;55959;51.244;5.724;2023-04-08T07:50:16;13.00;73.80
68922;DHT22;55959;51.244;5.724;2023-04-08T07:52:42;13.00;73.60
68922;DHT22;55959;51.244;5.724;2023-04-08T07:55:08;13.00;73.60
68922;DHT22;55959;51.244;5.724;2023-04-08T07:57:34;13.00;73.60
68922;DHT22;55959;51.244;5.724;2023-04-08T08:00:00;13.10;73.50
68922;DHT22;55959;51.244;5.724;2023-04-08T08:02:26;13.10;73.50
68922;DHT22;55959;51.244;5.724;2023-04-08T08:04:51;13.10;73.40
68922;DHT22;55959;51.244;5.724;2023-04-08T08:07:17;13.10;73.30
68922;DHT22;55959;51.244;5.724;2023-04-08T08:09:43;13.20;73.20
68922;DHT22;55959;51.244;5.724;2023-04-08T08:12:08;13.20;73.20
68922;DHT22;55959;51.244;5.724;2023-04-08T08:14:34;13.20;72.80
68922;DHT22;55959;51.244;5.724;2023-04-08T08:17:00;13.20;72.60
68922;DHT22;55959;51.244;5.724;2023-04-08T08:19:28;13.20;72.30
68922;DHT22;55959;51.244;5.724;2023-04-08T08:21:53;13.20;72.10
68922;DHT22;55959;51.244;5.724;2023-04-08T08:24:20;13.20;72.10
68922;DHT22;55959;51.244;5.724;2023-04-08T08:26:46;13.30;72.20
68922;DHT22;55959;51.244;5.724;2023-04-08T08:29:13;13.20;72.10
68922;DHT22;55959;51.244;5.724;2023-04-08T08:31:39;13.30;72.20
68922;DHT22;55959;51.244;5.724;2023-04-08T08:34:05;13.30;72.20
68922;DHT22;55959;51.244;5.724;2023-04-08T08:36:31;13.20;72.00
68922;DHT22;55959;51.244;5.724;2023-04-08T08:38:57;13.30;71.80
68922;DHT22;55959;51.244;5.724;2023-04-08T08:41:22;13.30;71.90
68922;DHT22;55959;51.244;5.724;2023-04-08T08:43:48;13.30;72.00
68922;DHT22;55959;51.244;5.724;2023-04-08T08:46:16;13.30;71.90
68922;DHT22;55959;51.244;5.724;2023-04-08T08:48:43;13.40;71.80
68922;DHT22;55959;51.244;5.724;2023-04-08T08:51:09;13.40;71.70
68922;DHT22;55959;51.244;5.724;2023-04-08T08:53:36;13.40;71.80
68922;DHT22;55959;51.244;5.724;2023-04-08T08:56:03;13.40;71.80
68922;DHT22;55959;51.244;5.724;2023-04-08T08:58:29;13.50;71.60
68922;DHT22;55959;51.244;5.724;2023-04-08T09:00:55;13.50;71.50
68922;DHT22;55959;51.244;5.724;2023-04-08T09:03:26;13.50;71.00
68922;DHT22;55959;51.244;5.724;2023-04-08T09:06:00;13.50;70.60
68922;DHT22;55959;51.244;5.724;2023-04-08T09:08:34;13.50;70.70
68922;DHT22;55959;51.244;5.724;2023-04-08T09:11:17;13.50;71.00
68922;DHT22;55959;51.244;5.724;2023-04-08T09:13:44;13.60;70.60
68922;DHT22;55959;51.244;5.724;2023-04-08T09:16:16;13.60;70.50
68922;DHT22;55959;51.244;5.724;2023-04-08T09:18:46;13.60;70.60
68922;DHT22;55959;51.244;5.724;2023-04-08T09:21:14;13.60;70.60
68922;DHT22;55959;51.244;5.724;2023-04-08T09:26:12;13.70;70.60
68922;DHT22;55959;51.244;5.724;2023-04-08T09:28:43;13.70;70.50
68922;DHT22;55959;51.244;5.724;2023-04-08T09:31:24;13.70;70.40
68922;DHT22;55959;51.244;5.724;2023-04-08T09:33:54;13.80;70.60
68922;DHT22;55959;51.244;5.724;2023-04-08T09:36:21;13.80;70.80
68922;DHT22;55959;51.244;5.724;2023-04-08T09:38:47;13.90;70.80
68922;DHT22;55959;51.244;5.724;2023-04-08T09:41:17;13.90;70.80
68922;DHT22;55959;51.244;5.724;2023-04-08T09:43:52;13.90;70.70
68922;DHT22;55959;51.244;5.724;2023-04-08T09:49:29;14.10;70.70
68922;DHT22;55959;51.244;5.724;2023-04-08T09:57:40;14.20;69.20
68922;DHT22;55959;51.244;5.724;2023-04-08T10:00:12;14.20;68.90
68922;DHT22;55959;51.244;5.724;2023-04-08T10:05:40;14.30;69.20
68922;DHT22;55959;51.244;5.724;2023-04-08T10:08:07;14.40;69.20
68922;DHT22;55959;51.244;5.724;2023-04-08T10:10:34;14.40;69.20
68922;DHT22;55959;51.244;5.724;2023-04-08T10:13:02;14.50;68.80
68922;DHT22;55959;51.244;5.724;2023-04-08T10:15:30;14.60;68.80
68922;DHT22;55959;51.244;5.724;2023-04-08T10:23:08;14.70;68.70
68922;DHT22;55959;51.244;5.724;2023-04-08T10:25:36;14.80;68.50
68922;DHT22;55959;51.244;5.724;2023-04-08T10:30:45;15.00;69.10
68922;DHT22;55959;51.244;5.724;2023-04-08T10:38:35;15.10;67.10
68922;DHT22;55959;51.244;5.724;2023-04-08T10:41:01;15.10;67.00
68922;DHT22;55959;51.244;5.724;2023-04-08T10:43:34;15.20;67.10
68922;DHT22;55959;51.244;5.724;2023-04-08T10:46:01;15.30;67.20
68922;DHT22;55959;51.244;5.724;2023-04-08T10:48:27;15.30;66.90
68922;DHT22;55959;51.244;5.724;2023-04-08T10:50:58;15.50;67.00
68922;DHT22;55959;51.244;5.724;2023-04-08T10:53:28;15.50;66.30
68922;DHT22;55959;51.244;5.724;2023-04-08T10:56:02;15.60;65.90
68922;DHT22;55959;51.244;5.724;2023-04-08T10:58:30;15.60;65.90
68922;DHT22;55959;51.244;5.724;2023-04-08T11:01:05;15.70;65.50
68922;DHT22;55959;51.244;5.724;2023-04-08T11:03:32;15.80;65.10
68922;DHT22;55959;51.244;5.724;2023-04-08T11:05:59;15.80;64.80
68922;DHT22;55959;51.244;5.724;2023-04-08T11:08:33;15.90;64.50
68922;DHT22;55959;51.244;5.724;2023-04-08T11:11:04;16.00;64.00
68922;DHT22;55959;51.244;5.724;2023-04-08T11:13:35;16.00;63.40
68922;DHT22;55959;51.244;5.724;2023-04-08T11:16:06;16.10;62.70
68922;DHT22;55959;51.244;5.724;2023-04-08T11:18:37;16.10;62.90
68922;DHT22;55959;51.244;5.724;2023-04-08T11:21:10;16.20;62.50
68922;DHT22;55959;51.244;5.724;2023-04-08T11:23:36;16.20;62.60
68922;DHT22;55959;51.244;5.724;2023-04-08T11:26:02;16.30;62.30
68922;DHT22;55959;51.244;5.724;2023-04-08T11:28:29;16.30;62.70
68922;DHT22;55959;51.244;5.724;2023-04-08T11:30:55;16.40;62.70
68922;DHT22;55959;51.244;5.724;2023-04-08T11:33:24;16.40;62.10
68922;DHT22;55959;51.244;5.724;2023-04-08T11:35:51;16.50;61.50
68922;DHT22;55959;51.244;5.724;2023-04-08T11:38:21;16.50;61.30
68922;DHT22;55959;51.244;5.724;2023-04-08T11:40:53;16.50;61.10
68922;DHT22;55959;51.244;5.724;2023-04-08T11:43:19;16.60;60.90
68922;DHT22;55959;51.244;5.724;2023-04-08T11:45:45;16.60;60.40
68922;DHT22;55959;51.244;5.724;2023-04-08T11:48:13;16.70;60.50
68922;DHT22;55959;51.244;5.724;2023-04-08T11:50:41;16.70;60.20
68922;DHT22;55959;51.244;5.724;2023-04-08T11:53:21;16.80;59.70
68922;DHT22;55959;51.244;5.724;2023-04-08T11:55:49;16.80;59.50
68922;DHT22;55959;51.244;5.724;2023-04-08T11:58:15;16.80;58.90
68922;DHT22;55959;51.244;5.724;2023-04-08T12:00:41;16.80;59.40
68922;DHT22;55959;51.244;5.724;2023-04-08T12:03:08;16.90;58.30
68922;DHT22;55959;51.244;5.724;2023-04-08T12:05:35;16.90;56.00
68922;DHT22;55959;51.244;5.724;2023-04-08T12:08:01;16.90;55.50
68922;DHT22;55959;51.244;5.724;2023-04-08T12:10:27;16.90;55.20
68922;DHT22;55959;51.244;5.724;2023-04-08T12:12:53;16.90;53.70
68922;DHT22;55959;51.244;5.724;2023-04-08T12:15:19;16.90;54.50
68922;DHT22;55959;51.244;5.724;2023-04-08T12:17:45;16.80;54.40
68922;DHT22;55959;51.244;5.724;2023-04-08T12:20:11;16.80;54.80
68922;DHT22;55959;51.244;5.724;2023-04-08T12:22:38;16.80;55.30
68922;DHT22;55959;51.244;5.724;2023-04-08T12:25:04;16.80;54.50
68922;DHT22;55959;51.244;5.724;2023-04-08T12:27:30;16.80;52.90
68922;DHT22;55959;51.244;5.724;2023-04-08T12:30:01;16.80;52.30
68922;DHT22;55959;51.244;5.724;2023-04-08T12:32:27;16.90;54.10
68922;DHT22;55959;51.244;5.724;2023-04-08T12:34:53;16.90;54.50
68922;DHT22;55959;51.244;5.724;2023-04-08T12:37:19;17.00;55.40
68922;DHT22;55959;51.244;5.724;2023-04-08T12:39:47;17.10;55.90
68922;DHT22;55959;51.244;5.724;2023-04-08T12:42:14;17.10;55.90
68922;DHT22;55959;51.244;5.724;2023-04-08T12:44:39;17.20;56.50
68922;DHT22;55959;51.244;5.724;2023-04-08T12:47:05;17.30;56.70
68922;DHT22;55959;51.244;5.724;2023-04-08T12:49:31;17.40;56.70
68922;DHT22;55959;51.244;5.724;2023-04-08T12:51:56;17.50;56.60
68922;DHT22;55959;51.244;5.724;2023-04-08T12:54:22;17.60;56.50
68922;DHT22;55959;51.244;5.724;2023-04-08T12:56:49;17.70;56.00
68922;DHT22;55959;51.244;5.724;2023-04-08T12:59:15;17.70;54.40
68922;DHT22;55959;51.244;5.724;2023-04-08T13:01:42;17.80;54.60
68922;DHT22;55959;51.244;5.724;2023-04-08T13:04:09;17.80;54.30
68922;DHT22;55959;51.244;5.724;2023-04-08T13:06:39;17.90;54.40
68922;DHT22;55959;51.244;5.724;2023-04-08T13:09:05;17.90;53.70
68922;DHT22;55959;51.244;5.724;2023-04-08T13:11:30;17.90;54.10
68922;DHT22;55959;51.244;5.724;2023-04-08T13:13:58;18.00;53.90
68922;DHT22;55959;51.244;5.724;2023-04-08T13:16:26;18.10;54.20
68922;DHT22;55959;51.244;5.724;2023-04-08T13:19:03;18.10;54.30
68922;DHT22;55959;51.244;5.724;2023-04-08T13:21:31;18.10;50.90
68922;DHT22;55959;51.244;5.724;2023-04-08T13:23:59;18.20;52.10
68922;DHT22;55959;51.244;5.724;2023-04-08T13:26:26;18.20;49.90
68922;DHT22;55959;51.244;5.724;2023-04-08T13:28:54;18.20;51.10
68922;DHT22;55959;51.244;5.724;2023-04-08T13:31:20;18.20;51.10
68922;DHT22;55959;51.244;5.724;2023-04-08T13:33:46;18.20;50.50
68922;DHT22;55959;51.244;5.724;2023-04-08T13:36:15;18.20;50.50
68922;DHT22;55959;51.244;5.724;2023-04-08T13:38:41;18.30;47.90
68922;DHT22;55959;51.244;5.724;2023-04-08T13:41:10;18.30;48.40
68922;DHT22;55959;51.244;5.724;2023-04-08T13:43:36;18.30;48.70
68922;DHT22;55959;51.244;5.724;2023-04-08T13:46:04;18.30;49.80
68922;DHT22;55959;51.244;5.724;2023-04-08T13:48:50;18.30;50.00
68922;DHT22;55959;51.244;5.724;2023-04-08T13:51:23;18.40;50.40
68922;DHT22;55959;51.244;5.724;2023-04-08T13:53:49;18.40;50.90
68922;DHT22;55959;51.244;5.724;2023-04-08T13:56:16;18.40;48.90
68922;DHT22;55959;51.244;5.724;2023-04-08T13:58:42;18.40;48.80
68922;DHT22;55959;51.244;5.724;2023-04-08T14:01:14;18.40;49.00
68922;DHT22;55959;51.244;5.724;2023-04-08T14:03:41;18.30;46.80
68922;DHT22;55959;51.244;5.724;2023-04-08T14:06:11;18.30;47.00
68922;DHT22;55959;51.244;5.724;2023-04-08T14:08:36;18.20;46.80
68922;DHT22;55959;51.244;5.724;2023-04-08T14:11:03;18.10;46.70
68922;DHT22;55959;51.244;5.724;2023-04-08T14:13:35;18.10;47.10
68922;DHT22;55959;51.244;5.724;2023-04-08T14:16:21;18.00;47.10
68922;DHT22;55959;51.244;5.724;2023-04-08T14:18:51;18.00;47.40
68922;DHT22;55959;51.244;5.724;2023-04-08T14:21:26;17.90;48.30
68922;DHT22;55959;51.244;5.724;2023-04-08T14:23:52;17.80;48.60
68922;DHT22;55959;51.244;5.724;2023-04-08T14:26:22;17.80;48.00
68922;DHT22;55959;51.244;5.724;2023-04-08T14:28:48;17.70;48.30
68922;DHT22;55959;51.244;5.724;2023-04-08T14:31:28;17.70;48.40
68922;DHT22;55959;51.244;5.724;2023-04-08T14:34:11;17.60;48.30
68922;DHT22;55959;51.244;5.724;2023-04-08T14:36:41;17.60;48.60
68922;DHT22;55959;51.244;5.724;2023-04-08T14:39:22;17.50;49.10
68922;DHT22;55959;51.244;5.724;2023-04-08T14:41:48;17.50;49.20
68922;DHT22;55959;51.244;5.724;2023-04-08T14:44:18;17.50;49.20
68922;DHT22;55959;51.244;5.724;2023-04-08T14:46:45;17.40;49.60
68922;DHT22;55959;51.244;5.724;2023-04-08T14:49:11;17.40;49.10
68922;DHT22;55959;51.244;5.724;2023-04-08T14:51:37;17.30;49.60
68922;DHT22;55959;51.244;5.724;2023-04-08T14:54:06;17.30;50.20
68922;DHT22;55959;51.244;5.724;2023-04-08T14:56:34;17.30;50.60
68922;DHT22;55959;51.244;5.724;2023-04-08T14:59:08;17.30;50.30
68922;DHT22;55959;51.244;5.724;2023-04-08T15:01:34;17.30;50.60
68922;DHT22;55959;51.244;5.724;2023-04-08T15:04:00;17.30;50.50
68922;DHT22;55959;51.244;5.724;2023-04-08T15:06:47;17.40;50.80
68922;DHT22;55959;51.244;5.724;2023-04-08T15:09:21;17.40;50.60
68922;DHT22;55959;51.244;5.724;2023-04-08T15:11:50;17.40;50.20
68922;DHT22;55959;51.244;5.724;2023-04-08T15:14:16;17.40;50.20
68922;DHT22;55959;51.244;5.724;2023-04-08T15:16:41;17.40;49.40
68922;DHT22;55959;51.244;5.724;2023-04-08T15:19:11;17.30;49.40
68922;DHT22;55959;51.244;5.724;2023-04-08T15:22:09;17.30;49.00
68922;DHT22;55959;51.244;5.724;2023-04-08T15:24:41;17.30;48.90
68922;DHT22;55959;51.244;5.724;2023-04-08T15:27:08;17.20;49.50
68922;DHT22;55959;51.244;5.724;2023-04-08T15:29:34;17.20;49.40
68922;DHT22;55959;51.244;5.724;2023-04-08T15:32:00;17.20;49.40
68922;DHT22;55959;51.244;5.724;2023-04-08T15:34:26;17.20;49.10
68922;DHT22;55959;51.244;5.724;2023-04-08T15:36:54;17.10;49.20
68922;DHT22;55959;51.244;5.724;2023-04-08T15:39:31;17.10;50.00
68922;DHT22;55959;51.244;5.724;2023-04-08T15:41:57;17.20;50.40
68922;DHT22;55959;51.244;5.724;2023-04-08T15:44:24;17.20;50.40
68922;DHT22;55959;51.244;5.724;2023-04-08T15:47:06;17.20;49.60
68922;DHT22;55959;51.244;5.724;2023-04-08T15:49:33;17.30;49.80
68922;DHT22;55959;51.244;5.724;2023-04-08T15:52:24;17.30;50.00
68922;DHT22;55959;51.244;5.724;2023-04-08T15:54:50;17.30;49.40
68922;DHT22;55959;51.244;5.724;2023-04-08T15:57:33;17.30;49.20
68922;DHT22;55959;51.244;5.724;2023-04-08T16:00:09;17.30;49.30
68922;DHT22;55959;51.244;5.724;2023-04-08T16:02:36;17.30;49.60
68922;DHT22;55959;51.244;5.724;2023-04-08T16:05:03;17.30;50.00